Time;durP1;ratioP1;P1;durP2;ratioP2;P2;SDS_P1;SDS_P2;PMS_P1;PMS_P2;Temp;Humidity;BMP_temperature;BMP_pressure;BME280_temperature;BME280_humidity;BME280_pressure;Samples;Min_cycle;Max_cycle;Signal;HPM_P1;HPM_P2
2022/11/11 00:00:31;;;;;;;6.37;3.47;;;;;;;;;;5067046;28;20207;-78
2022/11/11 00:03:55;;;;;;;4.83;3.40;;;;;;;;;;5077103;28;20184;-78
2022/11/11 00:07:18;;;;;;;5.33;3.43;;;;;;;;;;5077356;28;20180;-78
2022/11/11 00:10:40;;;;;;;5.60;3.67;;;;;;;;;;5076366;28;20587;-78
2022/11/11 00:14:03;;;;;;;4.50;3.53;;;;;;;;;;5077087;28;20180;-78
2022/11/11 00:25:06;;;;;;;6.97;4.07;;;;;;;;;;5081572;28;20172;-81
2022/11/11 00:28:29;;;;;;;8.43;4.23;;;;;;;;;;5070864;28;20195;-80
2022/11/11 00:35:52;;;;;;;10.93;4.33;;;;;;;;;;5080834;28;20180;-81
2022/11/11 00:39:14;;;;;;;5.47;4.20;;;;;;;;;;5068149;28;20195;-81
2022/11/11 00:42:38;;;;;;;6.97;4.20;;;;;;;;;;5057682;28;20212;-80
2022/11/11 00:53:29;;;;;;;8.00;4.17;;;;;;;;;;5066624;28;20184;-80
2022/11/11 00:56:52;;;;;;;7.07;4.57;;;;;;;;;;5066959;28;20187;-80
2022/11/11 01:00:15;;;;;;;7.40;4.80;;;;;;;;;;5057877;28;20183;-80
2022/11/11 01:03:38;;;;;;;6.37;4.37;;;;;;;;;;5065867;28;20188;-80
2022/11/11 01:07:00;;;;;;;8.30;4.53;;;;;;;;;;5057386;28;20184;-81
2022/11/11 01:10:40;;;;;;;6.37;4.77;;;;;;;;;;5069823;28;20209;-81
2022/11/11 01:14:03;;;;;;;8.87;5.57;;;;;;;;;;5079434;28;20179;-80
2022/11/11 01:17:25;;;;;;;12.23;5.00;;;;;;;;;;5066384;28;20183;-81
2022/11/11 01:21:00;;;;;;;7.40;5.00;;;;;;;;;;5064153;28;20223;-80
2022/11/11 01:24:23;;;;;;;7.83;5.03;;;;;;;;;;5057878;28;20184;-81
2022/11/11 01:27:45;;;;;;;7.50;4.10;;;;;;;;;;5065925;28;20179;-80
2022/11/11 01:31:13;;;;;;;7.60;4.60;;;;;;;;;;5078014;28;20219;-81
2022/11/11 01:34:36;;;;;;;6.50;4.60;;;;;;;;;;5069353;28;20171;-80
2022/11/11 01:37:58;;;;;;;5.87;4.77;;;;;;;;;;5057386;28;20187;-80
2022/11/11 01:41:33;;;;;;;8.50;5.57;;;;;;;;;;5057736;28;20223;-81
2022/11/11 01:44:56;;;;;;;7.73;5.40;;;;;;;;;;5066593;28;20188;-80
2022/11/11 01:52:24;;;;;;;7.80;5.23;;;;;;;;;;5066214;28;20215;-79
2022/11/11 01:55:47;;;;;;;6.77;5.17;;;;;;;;;;5065575;28;20184;-81
2022/11/11 01:59:13;;;;;;;7.47;5.20;;;;;;;;;;5056971;28;20184;-80
2022/11/11 02:02:52;;;;;;;8.83;5.20;;;;;;;;;;5065730;28;20222;-80
2022/11/11 02:06:14;;;;;;;8.60;5.03;;;;;;;;;;5056859;28;20188;-80
2022/11/11 02:09:41;;;;;;;7.73;4.97;;;;;;;;;;5078844;28;20183;-80
2022/11/11 02:16:51;;;;;;;6.03;4.87;;;;;;;;;;5065751;28;20625;-79
2022/11/11 02:20:18;;;;;;;5.07;4.30;;;;;;;;;;5077655;28;20683;-79
2022/11/11 02:23:54;;;;;;;4.97;4.27;;;;;;;;;;5065018;28;20618;-79
2022/11/11 02:27:18;;;;;;;9.33;4.23;;;;;;;;;;5067274;28;20184;-79
2022/11/11 02:30:41;;;;;;;6.13;4.33;;;;;;;;;;5064673;28;20626;-79
2022/11/11 02:34:03;;;;;;;8.23;4.80;;;;;;;;;;5068058;28;20183;-79
2022/11/11 02:37:26;;;;;;;5.07;4.30;;;;;;;;;;5077222;28;20182;-79
2022/11/11 02:41:55;;;;;;;6.80;4.27;;;;;;;;;;5055656;28;20554;-79
2022/11/11 02:44:32;;;;;;;7.13;4.80;;;;;;;;;;5064234;28;20199;-79
2022/11/11 02:47:54;;;;;;;6.60;4.37;;;;;;;;;;5064571;28;20550;-79
2022/11/11 02:51:17;;;;;;;6.10;4.27;;;;;;;;;;5059755;28;20219;-80
2022/11/11 02:54:41;;;;;;;5.97;4.53;;;;;;;;;;5073796;28;20179;-79
2022/11/11 02:58:04;;;;;;;7.27;4.83;;;;;;;;;;5069468;28;20199;-78
2022/11/11 03:01:26;;;;;;;5.83;4.40;;;;;;;;;;5075205;28;20220;-78
2022/11/11 03:04:49;;;;;;;6.90;4.73;;;;;;;;;;5075098;28;20641;-79
2022/11/11 03:08:11;;;;;;;5.90;5.00;;;;;;;;;;5056471;28;20643;-78
2022/11/11 03:11:37;;;;;;;7.03;4.70;;;;;;;;;;5068916;28;20207;-78
2022/11/11 03:14:59;;;;;;;4.97;4.37;;;;;;;;;;5066403;28;20191;-80
2022/11/11 03:18:21;;;;;;;6.00;4.70;;;;;;;;;;5078784;28;20179;-79
2022/11/11 03:21:44;;;;;;;6.67;5.10;;;;;;;;;;5077493;28;20235;-79
2022/11/11 03:28:48;;;;;;;5.10;4.43;;;;;;;;;;5078470;28;20180;-78
2022/11/11 03:32:11;;;;;;;5.97;3.93;;;;;;;;;;5065844;28;20211;-79
2022/11/11 03:35:34;;;;;;;4.73;4.23;;;;;;;;;;5073300;28;20199;-78
2022/11/11 03:38:57;;;;;;;5.40;4.10;;;;;;;;;;5098901;28;20179;-78
2022/11/11 03:42:19;;;;;;;7.13;4.50;;;;;;;;;;5085554;28;20226;-79
2022/11/11 03:45:42;;;;;;;5.57;4.30;;;;;;;;;;5076804;28;20188;-78
2022/11/11 03:49:05;;;;;;;6.23;4.90;;;;;;;;;;5098636;28;20187;-79
2022/11/11 03:52:27;;;;;;;7.23;5.07;;;;;;;;;;5076154;28;20210;-78
2022/11/11 03:55:51;;;;;;;4.80;4.30;;;;;;;;;;5076363;28;20183;-79
2022/11/11 03:59:13;;;;;;;4.77;3.77;;;;;;;;;;5098173;28;20183;-79
2022/11/11 04:17:25;;;;;;;4.37;3.97;;;;;;;;;;5085366;28;20179;-80
2022/11/11 04:35:35;;;;;;;5.77;4.27;;;;;;;;;;5084767;28;20187;-81
2022/11/11 04:42:39;;;;;;;6.97;3.83;;;;;;;;;;5085046;28;20219;-79
2022/11/11 04:46:02;;;;;;;5.27;4.27;;;;;;;;;;5085130;28;20187;-80
2022/11/11 04:49:25;;;;;;;5.93;4.10;;;;;;;;;;5087648;28;20183;-80
2022/11/11 04:52:48;;;;;;;4.17;3.77;;;;;;;;;;5075886;28;20210;-80
2022/11/11 04:59:52;;;;;;;6.67;4.57;;;;;;;;;;5097167;28;20626;-80
2022/11/11 05:03:17;;;;;;;5.03;4.53;;;;;;;;;;5083884;28;20199;-79
2022/11/11 05:10:21;;;;;;;4.87;4.20;;;;;;;;;;5096511;28;20179;-79
2022/11/11 05:21:19;;;;;;;4.57;4.03;;;;;;;;;;5096084;28;20230;-81
2022/11/11 05:28:23;;;;;;;4.87;4.37;;;;;;;;;;5083386;28;20190;-80
2022/11/11 05:31:46;;;;;;;4.70;4.20;;;;;;;;;;5083513;28;20211;-80
2022/11/11 05:35:11;;;;;;;4.67;4.13;;;;;;;;;;5064698;28;20562;-78
2022/11/11 05:38:33;;;;;;;5.40;4.20;;;;;;;;;;5063910;28;20188;-78
2022/11/11 05:41:56;;;;;;;5.17;4.27;;;;;;;;;;5062861;28;20641;-79
2022/11/11 05:45:18;;;;;;;6.10;4.80;;;;;;;;;;5066092;28;20184;-78
2022/11/11 05:49:14;;;;;;;6.57;4.10;;;;;;;;;;5054259;28;20188;-78
2022/11/11 05:52:23;;;;;;;8.10;5.10;;;;;;;;;;5075375;28;20215;-78
2022/11/11 05:55:46;;;;;;;6.23;4.83;;;;;;;;;;5056439;28;20186;-79
2022/11/11 05:59:09;;;;;;;6.13;5.23;;;;;;;;;;5054352;28;20180;-79
2022/11/11 06:02:32;;;;;;;6.97;5.27;;;;;;;;;;5054054;28;20219;-79
2022/11/11 06:05:55;;;;;;;8.97;5.27;;;;;;;;;;5054736;28;20184;-79
2022/11/11 06:09:17;;;;;;;8.23;5.20;;;;;;;;;;5053532;28;20187;-79
2022/11/11 06:13:03;;;;;;;7.30;4.90;;;;;;;;;;5053617;28;20215;-78
2022/11/11 06:16:26;;;;;;;6.73;5.67;;;;;;;;;;5063813;28;20634;-78
2022/11/11 06:19:48;;;;;;;7.77;4.70;;;;;;;;;;5060235;28;20204;-78
2022/11/11 06:23:11;;;;;;;11.60;5.83;;;;;;;;;;5074418;23;20227;-79
2022/11/11 06:26:34;;;;;;;9.93;7.60;;;;;;;;;;5077996;28;20180;-79
2022/11/11 06:29:56;;;;;;;9.83;6.80;;;;;;;;;;5065646;28;20188;-79
2022/11/11 06:33:20;;;;;;;7.40;5.40;;;;;;;;;;5045095;28;20172;-79
2022/11/11 06:36:43;;;;;;;6.27;4.67;;;;;;;;;;5058392;28;20531;-79
2022/11/11 06:40:06;;;;;;;6.90;5.07;;;;;;;;;;5058783;28;20184;-79
2022/11/11 06:43:29;;;;;;;9.23;5.20;;;;;;;;;;5061004;28;20204;-79
2022/11/11 06:46:52;;;;;;;8.60;5.40;;;;;;;;;;5052403;28;20180;-79
2022/11/11 06:50:14;;;;;;;8.33;5.13;;;;;;;;;;5060729;28;20181;-79
2022/11/11 06:53:37;;;;;;;7.17;5.23;;;;;;;;;;5048397;28;20185;-79
2022/11/11 06:57:00;;;;;;;9.83;5.80;;;;;;;;;;5049547;28;20184;-79
2022/11/11 07:00:22;;;;;;;7.17;5.37;;;;;;;;;;5061897;28;20543;-79
2022/11/11 07:03:45;;;;;;;7.03;5.43;;;;;;;;;;5059628;28;20204;-79
2022/11/11 07:07:07;;;;;;;6.40;5.33;;;;;;;;;;5048087;28;20184;-79
2022/11/11 07:10:32;;;;;;;9.50;5.67;;;;;;;;;;5059896;28;20181;-79
2022/11/11 07:13:55;;;;;;;7.73;6.00;;;;;;;;;;5059636;28;20189;-79
2022/11/11 07:17:17;;;;;;;8.60;7.03;;;;;;;;;;5059082;28;20187;-79
2022/11/11 07:20:40;;;;;;;8.20;7.13;;;;;;;;;;5047941;28;20176;-78
2022/11/11 07:24:03;;;;;;;6.30;5.13;;;;;;;;;;5060001;28;20667;-79
2022/11/11 07:27:26;;;;;;;8.13;4.70;;;;;;;;;;5047846;28;20189;-79
2022/11/11 07:30:48;;;;;;;7.27;5.20;;;;;;;;;;5047720;28;20177;-79
2022/11/11 07:34:11;;;;;;;9.27;7.00;;;;;;;;;;5047925;28;20176;-79
2022/11/11 07:37:35;;;;;;;25.90;14.40;;;;;;;;;;5047791;28;20184;-79
2022/11/11 07:40:58;;;;;;;12.80;8.77;;;;;;;;;;5059116;28;20220;-79
2022/11/11 07:44:21;;;;;;;9.17;6.00;;;;;;;;;;5060369;28;20200;-79
2022/11/11 07:47:44;;;;;;;11.47;7.70;;;;;;;;;;5048344;28;20196;-79
2022/11/11 07:51:07;;;;;;;9.07;6.60;;;;;;;;;;5060567;28;20559;-78
2022/11/11 07:54:30;;;;;;;13.00;6.37;;;;;;;;;;5060008;28;20177;-79
2022/11/11 07:57:52;;;;;;;8.37;6.07;;;;;;;;;;5060192;28;20181;-79
2022/11/11 08:01:14;;;;;;;7.80;6.27;;;;;;;;;;5048358;28;20219;-79
2022/11/11 08:04:37;;;;;;;9.07;6.33;;;;;;;;;;5048138;28;20169;-79
2022/11/11 08:08:07;;;;;;;8.83;6.80;;;;;;;;;;5060267;28;20188;-79
2022/11/11 08:15:11;;;;;;;9.83;6.23;;;;;;;;;;5059905;28;20180;-79
2022/11/11 08:18:34;;;;;;;7.60;6.13;;;;;;;;;;5058753;28;20188;-79
2022/11/11 08:21:56;;;;;;;7.37;5.93;;;;;;;;;;5048441;28;20224;-79
2022/11/11 08:25:19;;;;;;;8.67;6.90;;;;;;;;;;5048395;28;20666;-79
2022/11/11 08:28:41;;;;;;;10.87;6.20;;;;;;;;;;5059984;28;20188;-79
2022/11/11 08:32:04;;;;;;;12.27;6.10;;;;;;;;;;5060376;28;20694;-79
2022/11/11 08:35:28;;;;;;;9.13;6.60;;;;;;;;;;5050899;28;20188;-79
2022/11/11 08:38:51;;;;;;;8.50;6.43;;;;;;;;;;5060197;28;20180;-79
2022/11/11 08:42:13;;;;;;;8.23;6.07;;;;;;;;;;5060220;28;20216;-79
2022/11/11 08:45:36;;;;;;;9.07;6.40;;;;;;;;;;5061103;28;20180;-79
2022/11/11 08:48:59;;;;;;;7.93;6.17;;;;;;;;;;5058864;28;20180;-79
2022/11/11 08:52:22;;;;;;;9.50;6.37;;;;;;;;;;5059938;28;20219;-79
2022/11/11 08:55:45;;;;;;;11.73;6.57;;;;;;;;;;5050291;28;20189;-79
2022/11/11 08:59:08;;;;;;;8.07;6.47;;;;;;;;;;5049996;28;20184;-79
2022/11/11 09:02:31;;;;;;;10.00;6.13;;;;;;;;;;5049402;28;20212;-79
2022/11/11 09:05:54;;;;;;;8.73;6.33;;;;;;;;;;5058126;28;20188;-79
2022/11/11 09:09:17;;;;;;;7.47;6.17;;;;;;;;;;5058820;28;20176;-79
2022/11/11 09:12:39;;;;;;;8.77;6.60;;;;;;;;;;5059119;28;20216;-79
2022/11/11 09:16:02;;;;;;;8.23;6.13;;;;;;;;;;5047141;28;20192;-79
2022/11/11 09:19:25;;;;;;;11.17;7.13;;;;;;;;;;5046980;28;20181;-79
2022/11/11 09:22:49;;;;;;;11.43;8.17;;;;;;;;;;5049368;28;20575;-79
2022/11/11 09:26:12;;;;;;;11.17;8.97;;;;;;;;;;5058890;28;20524;-78
2022/11/11 09:29:34;;;;;;;13.23;8.97;;;;;;;;;;5046968;28;20184;-79
2022/11/11 09:33:02;;;;;;;15.30;9.57;;;;;;;;;;5046986;28;20702;-78
2022/11/11 09:36:24;;;;;;;11.50;8.60;;;;;;;;;;5050162;28;20180;-79
2022/11/11 09:39:47;;;;;;;24.20;8.50;;;;;;;;;;5050055;28;20181;-79
2022/11/11 09:43:27;;;;;;;11.67;9.07;;;;;;;;;;5058964;28;20208;-79
2022/11/11 09:47:21;;;;;;;10.33;7.03;;;;;;;;;;5059500;28;20184;-79
2022/11/11 09:50:53;;;;;;;37.47;8.60;;;;;;;;;;5046714;28;20180;-79
2022/11/11 09:54:34;;;;;;;14.63;7.53;;;;;;;;;;5057954;28;20176;-79
2022/11/11 09:58:03;;;;;;;24.73;9.00;;;;;;;;;;5057584;28;20180;-79
2022/11/11 10:01:31;;;;;;;9.53;6.90;;;;;;;;;;5045786;28;20219;-79
2022/11/11 10:05:15;;;;;;;7.33;6.00;;;;;;;;;;5058005;28;20199;-79
2022/11/11 10:08:43;;;;;;;6.83;5.97;;;;;;;;;;5058470;28;20180;-79
2022/11/11 10:12:11;;;;;;;7.53;5.63;;;;;;;;;;5046143;28;20207;-79
2022/11/11 10:15:41;;;;;;;6.23;5.60;;;;;;;;;;5046326;28;20180;-79
2022/11/11 10:19:27;;;;;;;17.03;6.73;;;;;;;;;;5046658;28;20562;-78
2022/11/11 10:23:12;;;;;;;17.23;13.93;;;;;;;;;;5045654;28;20224;-79
2022/11/11 10:26:39;;;;;;;17.80;10.23;;;;;;;;;;5058221;28;20204;-79
2022/11/11 10:30:25;;;;;;;13.07;9.47;;;;;;;;;;5048685;28;20181;-79
2022/11/11 10:34:08;;;;;;;7.27;6.57;;;;;;;;;;5056172;28;20168;-78
2022/11/11 10:37:39;;;;;;;7.33;5.57;;;;;;;;;;5051774;28;20195;-78
2022/11/11 10:41:14;;;;;;;10.93;6.23;;;;;;;;;;5048465;28;20212;-78
2022/11/11 10:44:37;;;;;;;8.00;6.13;;;;;;;;;;5031329;28;20207;-78
2022/11/11 10:48:15;;;;;;;7.93;6.90;;;;;;;;;;5038587;28;20193;-78
2022/11/11 10:51:45;;;;;;;9.33;7.30;;;;;;;;;;5038336;28;20208;-79
2022/11/11 10:55:11;;;;;;;9.77;7.53;;;;;;;;;;5025842;28;20177;-78
2022/11/11 10:58:47;;;;;;;9.53;7.93;;;;;;;;;;5037940;28;20181;-78
2022/11/11 11:02:21;;;;;;;10.60;7.63;;;;;;;;;;5036379;28;20224;-78
2022/11/11 11:06:03;;;;;;;9.67;6.83;;;;;;;;;;5036109;28;20188;-78
2022/11/11 11:09:32;;;;;;;9.83;6.93;;;;;;;;;;5025240;28;20645;-78
2022/11/11 11:13:04;;;;;;;8.67;7.07;;;;;;;;;;5032769;28;20579;-77
2022/11/11 11:16:42;;;;;;;9.27;7.67;;;;;;;;;;5023821;28;20177;-78
2022/11/11 11:20:31;;;;;;;9.67;6.57;;;;;;;;;;5022033;28;20184;-78
2022/11/11 11:23:54;;;;;;;12.80;7.20;;;;;;;;;;5022207;28;20201;-78
2022/11/11 11:27:25;;;;;;;9.77;7.23;;;;;;;;;;5035154;28;20193;-78
2022/11/11 11:31:03;;;;;;;9.50;7.13;;;;;;;;;;5036579;28;20184;-78
2022/11/11 11:34:41;;;;;;;8.93;7.50;;;;;;;;;;5036120;28;20177;-78
2022/11/11 11:38:06;;;;;;;9.63;7.60;;;;;;;;;;5037601;28;20185;-78
2022/11/11 11:41:37;;;;;;;12.07;7.80;;;;;;;;;;5035751;28;20224;-78
2022/11/11 11:45:18;;;;;;;8.40;7.23;;;;;;;;;;5035626;28;20205;-77
2022/11/11 11:48:59;;;;;;;9.93;7.13;;;;;;;;;;5035248;28;20197;-78
2022/11/11 11:52:37;;;;;;;8.50;7.60;;;;;;;;;;5026732;28;20225;-76
2022/11/11 11:56:12;;;;;;;9.60;8.00;;;;;;;;;;5037069;28;20177;-78
2022/11/11 11:59:45;;;;;;;8.10;7.30;;;;;;;;;;5039560;28;20185;-79
2022/11/11 12:03:20;;;;;;;8.40;7.33;;;;;;;;;;5039584;28;20185;-79
2022/11/11 12:07:05;;;;;;;7.93;7.13;;;;;;;;;;5039865;28;20182;-78
2022/11/11 12:10:52;;;;;;;8.13;6.77;;;;;;;;;;5040585;28;20201;-78
2022/11/11 12:14:42;;;;;;;8.00;7.20;;;;;;;;;;5040316;28;20177;-78
2022/11/11 12:18:49;;;;;;;7.67;6.87;;;;;;;;;;5030056;28;20185;-78
2022/11/11 12:22:48;;;;;;;7.73;6.57;;;;;;;;;;5034834;28;20572;-78
2022/11/11 12:26:41;;;;;;;8.10;6.20;;;;;;;;;;5039281;28;20173;-77
2022/11/11 12:30:07;;;;;;;7.67;6.63;;;;;;;;;;5017662;28;20185;-78
2022/11/11 12:33:51;;;;;;;8.27;7.30;;;;;;;;;;5027873;28;20185;-77
2022/11/11 12:37:43;;;;;;;8.43;6.50;;;;;;;;;;5039502;28;20181;-78
2022/11/11 12:41:26;;;;;;;7.63;6.80;;;;;;;;;;5027644;28;20553;-77
2022/11/11 12:45:00;;;;;;;7.40;6.70;;;;;;;;;;5071020;22;20233;-91
2022/11/11 12:48:51;;;;;;;6.03;5.43;;;;;;;;;;5091398;28;20193;-91
2022/11/11 12:52:13;;;;;;;15.47;8.87;;;;;;;;;;5094125;28;20501;-91
2022/11/11 12:55:50;;;;;;;8.50;6.93;;;;;;;;;;5081029;28;20215;-92
2022/11/11 12:59:15;;;;;;;7.33;6.43;;;;;;;;;;5075012;28;20180;-91
2022/11/11 13:03:28;;;;;;;9.63;8.63;;;;;;;;;;5075973;28;20179;-92
2022/11/11 13:07:17;;;;;;;7.57;6.77;;;;;;;;;;5065582;28;20176;-91
2022/11/11 13:10:59;;;;;;;10.47;7.70;;;;;;;;;;5067204;28;20203;-91
2022/11/11 13:14:39;;;;;;;12.20;7.47;;;;;;;;;;5083451;28;20168;-92
2022/11/11 13:18:11;;;;;;;8.47;7.17;;;;;;;;;;5073756;28;20180;-92
2022/11/11 13:22:26;;;;;;;10.80;7.17;;;;;;;;;;5053927;28;20180;-92
2022/11/11 13:25:52;;;;;;;11.07;6.80;;;;;;;;;;4953612;28;20226;-91
2022/11/11 13:29:20;;;;;;;8.13;7.17;;;;;;;;;;4990143;28;20200;-91
2022/11/11 13:32:52;;;;;;;8.37;6.23;;;;;;;;;;5042170;28;20184;-91
2022/11/11 13:36:18;;;;;;;6.63;5.73;;;;;;;;;;5032982;28;20212;-92
2022/11/11 13:39:50;;;;;;;7.10;5.67;;;;;;;;;;5045017;28;20524;-92
2022/11/11 13:43:21;;;;;;;7.73;5.33;;;;;;;;;;5041903;28;20180;-92
2022/11/11 13:46:46;;;;;;;6.37;5.60;;;;;;;;;;5033068;28;20176;-92
2022/11/11 13:50:29;;;;;;;8.03;6.17;;;;;;;;;;5044415;28;20525;-91
2022/11/11 13:53:53;;;;;;;8.17;6.87;;;;;;;;;;5033056;28;20180;-92
2022/11/11 13:57:28;;;;;;;7.90;6.10;;;;;;;;;;5032710;28;20180;-92
2022/11/11 14:01:00;;;;;;;9.47;7.50;;;;;;;;;;5053608;28;20184;-92
2022/11/11 14:04:22;;;;;;;8.93;8.03;;;;;;;;;;5041646;28;20200;-92
2022/11/11 14:07:48;;;;;;;9.73;8.50;;;;;;;;;;5044290;28;20189;-92
2022/11/11 14:16:01;;;;;;;8.63;7.53;;;;;;;;;;5054889;28;20690;-92
2022/11/11 14:19:24;;;;;;;8.10;7.30;;;;;;;;;;5043153;28;20184;-92
2022/11/11 14:23:29;;;;;;;8.13;7.33;;;;;;;;;;5043032;28;20185;-92
2022/11/11 14:27:34;;;;;;;12.07;8.27;;;;;;;;;;5049645;28;20173;-92
2022/11/11 14:31:24;;;;;;;9.43;7.97;;;;;;;;;;5034068;28;20631;-92
2022/11/11 14:35:09;;;;;;;10.27;9.17;;;;;;;;;;5032813;28;20609;-92
2022/11/11 14:38:37;;;;;;;13.10;11.03;;;;;;;;;;5043367;28;20211;-92
2022/11/11 14:42:03;;;;;;;16.73;10.70;;;;;;;;;;5032880;28;20642;-89
2022/11/11 14:45:29;;;;;;;17.87;10.37;;;;;;;;;;5032690;28;20224;-89
2022/11/11 14:48:55;;;;;;;15.93;11.10;;;;;;;;;;5053523;28;20188;-89
2022/11/11 14:52:36;;;;;;;13.10;10.37;;;;;;;;;;5032512;28;20239;-89
2022/11/11 14:55:59;;;;;;;31.47;12.13;;;;;;;;;;5032478;28;20216;-89
2022/11/11 14:59:24;;;;;;;20.30;11.30;;;;;;;;;;5044377;28;20184;-89
2022/11/11 15:02:52;;;;;;;77.63;13.27;;;;;;;;;;5044446;28;20184;-89
2022/11/11 15:06:21;;;;;;;60.80;14.57;;;;;;;;;;5045090;28;20219;-89
2022/11/11 15:10:01;;;;;;;29.97;12.30;;;;;;;;;;5047878;28;20187;-89
2022/11/11 15:13:55;;;;;;;41.87;12.20;;;;;;;;;;5035856;28;20176;-89
2022/11/11 15:17:32;;;;;;;79.53;14.13;;;;;;;;;;5035528;28;20184;-88
2022/11/11 15:21:21;;;;;;;61.63;13.97;;;;;;;;;;5046319;28;20184;-89
2022/11/11 15:25:31;;;;;;;48.83;12.00;;;;;;;;;;5049386;28;20264;-89
2022/11/11 15:38:19;;;;;;;215.97;14.63;;;;;;;;;;5064172;28;20183;-89
2022/11/11 15:41:46;;;;;;;277.73;16.50;;;;;;;;;;5048426;28;20646;-89
2022/11/11 15:45:27;;;;;;;53.70;12.27;;;;;;;;;;5034626;28;20251;-89
2022/11/11 15:48:52;;;;;;;110.00;11.20;;;;;;;;;;5036478;28;20188;-89
2022/11/11 15:52:21;;;;;;;60.77;10.77;;;;;;;;;;5043398;28;20191;-89
2022/11/11 15:55:55;;;;;;;107.73;11.90;;;;;;;;;;5056631;28;20211;-89
2022/11/11 15:59:30;;;;;;;214.27;15.43;;;;;;;;;;5035338;28;20187;-90
2022/11/11 16:02:55;;;;;;;153.30;15.20;;;;;;;;;;5048082;28;20195;-89
2022/11/11 16:06:18;;;;;;;179.87;13.47;;;;;;;;;;5043802;28;20220;-89
2022/11/11 16:09:41;;;;;;;134.20;13.30;;;;;;;;;;5036246;28;20193;-89
2022/11/11 16:13:15;;;;;;;100.37;12.87;;;;;;;;;;5047245;28;20193;-89
2022/11/11 16:16:40;;;;;;;62.33;13.03;;;;;;;;;;5044805;28;20184;-89
2022/11/11 16:20:03;;;;;;;20.67;11.93;;;;;;;;;;5044753;28;20192;-89
2022/11/11 16:23:26;;;;;;;37.60;12.50;;;;;;;;;;5035768;28;20181;-90
2022/11/11 16:26:49;;;;;;;51.13;11.97;;;;;;;;;;5044604;28;20172;-89
2022/11/11 16:30:36;;;;;;;49.77;13.73;;;;;;;;;;5035534;28;20188;-89
2022/11/11 16:34:27;;;;;;;18.50;12.70;;;;;;;;;;5046932;28;20180;-89
2022/11/11 16:38:42;;;;;;;19.90;12.07;;;;;;;;;;5043632;28;20176;-89
2022/11/11 16:42:17;;;;;;;24.67;12.43;;;;;;;;;;5042656;28;20196;-89
2022/11/11 16:46:12;;;;;;;25.30;14.07;;;;;;;;;;5045033;28;20223;-89
2022/11/11 16:49:37;;;;;;;29.53;12.87;;;;;;;;;;5033672;28;20195;-89
2022/11/11 16:53:06;;;;;;;77.63;14.03;;;;;;;;;;5042664;28;20184;-89
2022/11/11 16:56:30;;;;;;;36.50;11.40;;;;;;;;;;5034111;28;20207;-89
2022/11/11 16:59:58;;;;;;;58.33;11.77;;;;;;;;;;5044033;28;20176;-88
2022/11/11 17:03:26;;;;;;;102.23;12.40;;;;;;;;;;5043630;28;20183;-89
2022/11/11 17:06:55;;;;;;;49.10;11.43;;;;;;;;;;5043566;28;20208;-89
2022/11/11 17:10:20;;;;;;;52.10;9.80;;;;;;;;;;5034203;28;20188;-89
2022/11/11 17:13:43;;;;;;;166.80;13.13;;;;;;;;;;5033501;28;20200;-89
2022/11/11 17:17:08;;;;;;;38.23;10.53;;;;;;;;;;5045761;28;20560;-87
2022/11/11 17:20:30;;;;;;;43.60;11.53;;;;;;;;;;5053828;28;20176;-88
2022/11/11 17:23:53;;;;;;;21.43;10.20;;;;;;;;;;5053514;28;20180;-86
2022/11/11 17:27:15;;;;;;;85.37;11.60;;;;;;;;;;5053158;28;20168;-87
2022/11/11 17:30:38;;;;;;;37.37;11.03;;;;;;;;;;5052871;28;20611;-87
2022/11/11 17:34:05;;;;;;;13.77;10.87;;;;;;;;;;5062314;28;20180;-88
2022/11/11 17:37:28;;;;;;;75.57;12.60;;;;;;;;;;5061700;28;20175;-87
2022/11/11 17:40:50;;;;;;;16.13;10.70;;;;;;;;;;5061741;28;20577;-88
2022/11/11 17:44:12;;;;;;;19.63;13.67;;;;;;;;;;5061645;28;20180;-88
2022/11/11 17:47:35;;;;;;;50.33;36.33;;;;;;;;;;5052512;28;20191;-88
2022/11/11 17:50:57;;;;;;;29.73;17.13;;;;;;;;;;5052618;28;20560;-88
2022/11/11 17:54:22;;;;;;;49.37;13.13;;;;;;;;;;5064299;28;20627;-88
2022/11/11 17:57:44;;;;;;;18.53;11.43;;;;;;;;;;5064258;28;20176;-88
2022/11/11 18:01:09;;;;;;;35.83;10.87;;;;;;;;;;5052628;28;20183;-88
2022/11/11 18:04:31;;;;;;;33.10;11.40;;;;;;;;;;5052641;28;20615;-88
2022/11/11 18:07:56;;;;;;;17.63;10.57;;;;;;;;;;5052413;28;20184;-88
2022/11/11 18:11:20;;;;;;;24.10;11.50;;;;;;;;;;5051983;28;20539;-88
2022/11/11 18:14:42;;;;;;;12.40;9.47;;;;;;;;;;5049709;28;20232;-86
2022/11/11 18:18:05;;;;;;;35.37;11.30;;;;;;;;;;5043920;28;20670;-88
2022/11/11 18:21:28;;;;;;;58.93;11.73;;;;;;;;;;5041739;28;20623;-88
2022/11/11 18:24:51;;;;;;;37.77;10.63;;;;;;;;;;5032578;28;20224;-88
2022/11/11 18:28:13;;;;;;;46.50;11.30;;;;;;;;;;5040879;28;20619;-88
2022/11/11 18:31:36;;;;;;;14.77;11.50;;;;;;;;;;5032465;28;20188;-88
2022/11/11 18:34:59;;;;;;;31.30;9.63;;;;;;;;;;5032503;28;20208;-88
2022/11/11 18:38:22;;;;;;;40.93;10.27;;;;;;;;;;5044697;28;20623;-87
2022/11/11 18:41:44;;;;;;;17.00;9.13;;;;;;;;;;5057808;28;20176;-88
2022/11/11 18:45:07;;;;;;;32.83;9.70;;;;;;;;;;5074259;22;20231;-88
2022/11/11 18:48:30;;;;;;;36.27;8.40;;;;;;;;;;5080484;28;20202;-88
2022/11/11 18:51:52;;;;;;;17.47;9.23;;;;;;;;;;5077586;28;20206;-88
2022/11/11 18:55:15;;;;;;;16.00;8.40;;;;;;;;;;5087244;28;20218;-89
2022/11/11 18:58:37;;;;;;;48.97;8.50;;;;;;;;;;5077686;28;20175;-88
2022/11/11 19:02:00;;;;;;;17.30;8.23;;;;;;;;;;5087083;28;20598;-89
2022/11/11 19:05:24;;;;;;;12.93;7.80;;;;;;;;;;5078610;28;20218;-89
2022/11/11 19:08:48;;;;;;;32.13;7.67;;;;;;;;;;5077967;28;20187;-88
2022/11/11 19:12:10;;;;;;;61.73;9.87;;;;;;;;;;5077252;28;20533;-88
2022/11/11 19:15:32;;;;;;;15.37;7.93;;;;;;;;;;5077022;28;20214;-88
2022/11/11 19:18:55;;;;;;;44.97;9.50;;;;;;;;;;5077184;28;20529;-88
2022/11/11 19:22:17;;;;;;;96.47;12.07;;;;;;;;;;5076480;28;20574;-88
2022/11/11 19:25:40;;;;;;;29.73;8.80;;;;;;;;;;5076447;28;20222;-88
2022/11/11 19:29:04;;;;;;;91.93;20.77;;;;;;;;;;5076889;28;20183;-88
2022/11/11 19:32:27;;;;;;;121.20;13.30;;;;;;;;;;5076278;28;20187;-89
2022/11/11 19:36:00;;;;;;;30.37;12.70;;;;;;;;;;5097359;28;20233;-89
2022/11/11 19:39:23;;;;;;;18.47;15.00;;;;;;;;;;5076513;28;20526;-88
2022/11/11 19:42:47;;;;;;;24.53;14.37;;;;;;;;;;5087885;28;20179;-88
2022/11/11 19:46:14;;;;;;;27.57;15.00;;;;;;;;;;5075632;28;20218;-88
2022/11/11 19:49:36;;;;;;;51.17;12.47;;;;;;;;;;5087359;28;20191;-88
2022/11/11 19:52:59;;;;;;;25.47;10.33;;;;;;;;;;5088241;28;20187;-88
2022/11/11 19:56:23;;;;;;;13.13;9.07;;;;;;;;;;5075575;28;20211;-89
2022/11/11 19:59:45;;;;;;;23.60;8.23;;;;;;;;;;5084395;28;20557;-88
2022/11/11 20:03:08;;;;;;;9.77;7.97;;;;;;;;;;5075885;28;20187;-89
2022/11/11 20:06:34;;;;;;;11.00;7.17;;;;;;;;;;5075317;28;20223;-88
2022/11/11 20:09:56;;;;;;;10.23;8.10;;;;;;;;;;5075376;28;20179;-89
2022/11/11 20:13:19;;;;;;;10.23;9.10;;;;;;;;;;5096902;28;20175;-88
2022/11/11 20:16:42;;;;;;;27.97;9.40;;;;;;;;;;5075000;28;20215;-89
2022/11/11 20:20:05;;;;;;;29.80;8.20;;;;;;;;;;5075910;28;20187;-88
2022/11/11 20:23:28;;;;;;;10.40;8.77;;;;;;;;;;5075597;28;20598;-88
2022/11/11 20:26:51;;;;;;;28.90;11.40;;;;;;;;;;5075385;28;20222;-88
2022/11/11 20:30:14;;;;;;;10.93;9.57;;;;;;;;;;5084850;28;20630;-89
2022/11/11 20:33:36;;;;;;;25.00;10.23;;;;;;;;;;5075384;28;20179;-88
2022/11/11 20:36:59;;;;;;;26.13;10.57;;;;;;;;;;5075721;28;20183;-88
2022/11/11 20:40:22;;;;;;;95.13;12.87;;;;;;;;;;5084620;28;20183;-88
2022/11/11 20:43:45;;;;;;;20.20;11.00;;;;;;;;;;5084265;28;20179;-88
2022/11/11 20:47:08;;;;;;;61.03;11.50;;;;;;;;;;5087185;28;20203;-88
2022/11/11 20:50:30;;;;;;;186.40;13.60;;;;;;;;;;5087438;28;20518;-88
2022/11/11 20:53:57;;;;;;;51.40;10.93;;;;;;;;;;5075335;28;20179;-88
2022/11/11 20:57:20;;;;;;;22.53;10.40;;;;;;;;;;5075411;28;20506;-88
2022/11/11 21:00:43;;;;;;;24.40;10.07;;;;;;;;;;5074065;28;20187;-88
2022/11/11 21:04:05;;;;;;;43.97;8.73;;;;;;;;;;5087063;28;20175;-88
2022/11/11 21:07:28;;;;;;;42.67;9.53;;;;;;;;;;5075172;28;20207;-88
2022/11/11 21:10:54;;;;;;;41.33;9.90;;;;;;;;;;5075877;28;20578;-88
2022/11/11 21:14:17;;;;;;;30.70;9.33;;;;;;;;;;5083887;28;20178;-88
2022/11/11 21:17:39;;;;;;;38.40;7.30;;;;;;;;;;5074729;28;20518;-89
2022/11/11 21:21:11;;;;;;;41.00;7.47;;;;;;;;;;5083707;28;20179;-88
2022/11/11 21:24:35;;;;;;;66.37;8.57;;;;;;;;;;5074530;28;20171;-88
2022/11/11 21:28:04;;;;;;;49.37;7.90;;;;;;;;;;5075677;28;20198;-88
2022/11/11 21:31:29;;;;;;;78.80;9.93;;;;;;;;;;5074466;28;20498;-88
2022/11/11 21:34:51;;;;;;;74.37;8.67;;;;;;;;;;5074622;28;20179;-88
2022/11/11 21:38:13;;;;;;;71.30;9.77;;;;;;;;;;5074924;28;20175;-88
2022/11/11 21:41:38;;;;;;;10.33;8.13;;;;;;;;;;5074467;28;20618;-88
2022/11/11 21:45:01;;;;;;;18.60;7.67;;;;;;;;;;5073541;28;20230;-88
2022/11/11 21:48:23;;;;;;;15.10;7.60;;;;;;;;;;5073845;28;20163;-87
2022/11/11 21:51:46;;;;;;;13.93;6.73;;;;;;;;;;5074056;28;20179;-88
2022/11/11 21:55:08;;;;;;;21.93;7.03;;;;;;;;;;5073294;28;20223;-88
2022/11/11 21:58:31;;;;;;;78.20;7.63;;;;;;;;;;5073893;28;20179;-88
2022/11/11 22:01:54;;;;;;;19.27;6.70;;;;;;;;;;5073830;28;20183;-88
2022/11/11 22:05:17;;;;;;;20.67;6.60;;;;;;;;;;5073140;28;20577;-88
2022/11/11 22:08:40;;;;;;;61.23;7.27;;;;;;;;;;5073248;28;20175;-88
2022/11/11 22:12:05;;;;;;;23.97;6.90;;;;;;;;;;5072780;28;20183;-88